Time;durP1;ratioP1;P1;durP2;ratioP2;P2;SDS_P1;SDS_P2;PMS_P1;PMS_P2;Temp;Humidity;BMP_temperature;BMP_pressure;BME280_temperature;BME280_humidity;BME280_pressure;Samples;Min_cycle;Max_cycle;Signal;HPM_P1;HPM_P2
2022/03/25 00:01:27;;;;;;;114.00;72.82;;;7.10;99.90;;;;;;5058664;28;20131;-79
2022/03/25 00:03:53;;;;;;;111.22;73.85;;;7.10;99.90;;;;;;5068613;28;20047;-79
2022/03/25 00:06:19;;;;;;;112.00;71.82;;;7.10;99.90;;;;;;5056354;28;20044;-78
2022/03/25 00:08:45;;;;;;;112.90;74.18;;;8.10;99.90;;;;;;5054834;28;20045;-79
2022/03/25 00:11:11;;;;;;;111.03;70.80;;;7.10;99.90;;;;;;5054971;28;20123;-79
2022/03/25 00:13:37;;;;;;;110.25;71.88;;;7.10;99.90;;;;;;5038748;28;20048;-79
2022/03/25 00:16:07;;;;;;;114.85;71.80;;;7.10;99.90;;;;;;5055942;28;20037;-79
2022/03/25 00:18:33;;;;;;;102.22;70.57;;;7.20;99.90;;;;;;5071811;28;20037;-78
2022/03/25 00:21:00;;;;;;;105.10;70.15;;;8.10;99.90;;;;;;5037434;28;20064;-78
2022/03/25 00:23:26;;;;;;;103.45;68.10;;;7.10;99.90;;;;;;5037087;28;20048;-79
2022/03/25 00:25:53;;;;;;;113.38;71.88;;;7.10;99.90;;;;;;5055789;28;20040;-79
2022/03/25 00:28:20;;;;;;;108.82;70.70;;;7.10;99.90;;;;;;5067094;28;20025;-78
2022/03/25 00:30:47;;;;;;;103.95;69.10;;;7.00;99.90;;;;;;5061652;28;20045;-78
2022/03/25 00:33:15;;;;;;;108.13;69.72;;;8.00;99.90;;;;;;5037995;28;20110;-79
2022/03/25 00:35:41;;;;;;;112.88;72.55;;;6.80;99.90;;;;;;5021534;28;20037;-78
2022/03/25 00:38:07;;;;;;;114.63;72.28;;;7.30;99.90;;;;;;5043556;28;20044;-79
2022/03/25 00:40:33;;;;;;;106.68;70.43;;;7.10;99.90;;;;;;5034406;28;20437;-78
2022/03/25 00:42:59;;;;;;;112.43;69.07;;;7.30;99.90;;;;;;5027481;28;20496;-79
2022/03/25 00:45:25;;;;;;;110.88;72.05;;;7.10;99.90;;;;;;5017918;28;20041;-79
2022/03/25 00:47:51;;;;;;;115.20;70.75;;;7.00;99.90;;;;;;5001032;28;20041;-79
2022/03/25 00:50:17;;;;;;;112.68;69.75;;;6.70;99.90;;;;;;5026507;28;20037;-79
2022/03/25 00:52:43;;;;;;;110.90;70.78;;;6.40;99.90;;;;;;5017705;28;20107;-79
2022/03/25 00:55:12;;;;;;;114.55;69.97;;;7.40;99.90;;;;;;5033996;28;20037;-79
2022/03/25 00:57:43;;;;;;;110.15;69.82;;;7.30;99.90;;;;;;5059559;28;20036;-79
2022/03/25 01:00:09;;;;;;;111.07;69.90;;;6.60;99.90;;;;;;5037112;28;20073;-79
2022/03/25 01:02:35;;;;;;;107.38;69.03;;;6.60;99.90;;;;;;5053902;28;20124;-79
2022/03/25 01:05:01;;;;;;;106.20;69.13;;;6.60;99.90;;;;;;5053681;28;20082;-79
2022/03/25 01:07:27;;;;;;;106.30;69.68;;;7.10;99.90;;;;;;5053745;28;20040;-79
2022/03/25 01:09:53;;;;;;;107.65;69.43;;;6.60;99.90;;;;;;5053661;28;20075;-78
2022/03/25 01:12:21;;;;;;;107.97;69.90;;;7.40;99.90;;;;;;5054327;28;20083;-79
2022/03/25 01:14:48;;;;;;;108.95;68.95;;;6.70;99.90;;;;;;5055300;28;20041;-78
2022/03/25 01:17:15;;;;;;;101.85;67.80;;;6.60;99.90;;;;;;5054048;28;20116;-79
2022/03/25 01:19:41;;;;;;;109.57;69.13;;;6.60;99.90;;;;;;5037443;28;20049;-79
2022/03/25 01:22:07;;;;;;;113.13;70.93;;;6.60;99.90;;;;;;5053849;28;20402;-78
2022/03/25 01:24:33;;;;;;;105.40;67.68;;;7.20;99.90;;;;;;5054468;28;20124;-78
2022/03/25 01:26:59;;;;;;;109.28;68.07;;;6.60;99.90;;;;;;5055354;28;20051;-78
2022/03/25 01:29:26;;;;;;;99.78;66.30;;;6.60;99.90;;;;;;5040517;28;20532;-79
2022/03/25 01:31:53;;;;;;;111.15;66.78;;;6.50;99.90;;;;;;5037231;28;20037;-79
2022/03/25 01:34:19;;;;;;;105.82;67.22;;;6.70;99.90;;;;;;5037080;28;20045;-79
2022/03/25 01:36:46;;;;;;;102.10;68.13;;;6.70;99.90;;;;;;5054713;28;20037;-79
2022/03/25 01:39:12;;;;;;;103.07;65.38;;;7.10;99.90;;;;;;5054783;28;20043;-79
2022/03/25 01:41:39;;;;;;;107.47;67.93;;;6.60;99.90;;;;;;5053507;28;20116;-79
2022/03/25 01:44:05;;;;;;;105.40;66.88;;;6.50;99.90;;;;;;5052999;28;20459;-79
2022/03/25 01:46:31;;;;;;;108.88;70.88;;;6.60;99.90;;;;;;5054370;28;20059;-79
2022/03/25 01:48:58;;;;;;;114.07;70.10;;;6.40;99.90;;;;;;5046661;28;20041;-79
2022/03/25 01:51:32;;;;;;;113.57;69.72;;;6.50;99.90;;;;;;5053303;28;20045;-82
2022/03/25 01:54:25;;;;;;;115.22;69.88;;;6.70;99.90;;;;;;5053653;28;20423;-82
2022/03/25 01:57:13;;;;;;;109.35;70.90;;;6.50;99.90;;;;;;5037533;28;20041;-82
2022/03/25 01:59:39;;;;;;;113.05;70.80;;;6.50;99.90;;;;;;5051875;28;20052;-81
2022/03/25 02:02:09;;;;;;;112.78;71.45;;;6.50;99.90;;;;;;5036444;28;20132;-81
2022/03/25 02:04:35;;;;;;;118.03;71.20;;;6.50;99.90;;;;;;5038126;28;20067;-81
2022/03/25 02:07:02;;;;;;;110.13;69.47;;;6.90;99.90;;;;;;5070436;28;20041;-81
2022/03/25 02:09:31;;;;;;;110.65;68.45;;;6.10;99.90;;;;;;5084957;28;20099;-82
2022/03/25 02:11:58;;;;;;;101.75;69.07;;;6.60;99.90;;;;;;5036820;28;20044;-82
2022/03/25 02:14:24;;;;;;;106.82;65.30;;;7.10;99.90;;;;;;5053756;28;20335;-82
2022/03/25 02:16:52;;;;;;;107.40;69.07;;;6.80;99.90;;;;;;5035423;28;20066;-82
2022/03/25 02:19:18;;;;;;;99.97;67.45;;;6.50;99.90;;;;;;5036183;28;20437;-82
2022/03/25 02:21:45;;;;;;;105.00;64.75;;;6.90;99.90;;;;;;5071371;28;20402;-81
2022/03/25 02:24:12;;;;;;;105.35;65.80;;;7.40;99.90;;;;;;5056270;28;20119;-81
2022/03/25 02:26:38;;;;;;;102.40;64.72;;;6.60;99.90;;;;;;5039910;28;20037;-82
2022/03/25 02:29:05;;;;;;;101.00;63.78;;;6.60;99.90;;;;;;5066842;28;20040;-81
2022/03/25 02:31:31;;;;;;;108.00;66.68;;;6.60;99.90;;;;;;5054033;28;20044;-81
2022/03/25 02:34:01;;;;;;;105.13;66.03;;;6.50;99.90;;;;;;5052517;28;20041;-81
2022/03/25 02:36:27;;;;;;;97.50;62.90;;;7.30;99.90;;;;;;5069700;28;20039;-81
2022/03/25 02:38:53;;;;;;;103.15;66.65;;;6.90;99.90;;;;;;5054523;28;20554;-81
2022/03/25 02:41:19;;;;;;;102.60;65.68;;;6.50;99.90;;;;;;5041434;28;20120;-80
2022/03/25 02:43:45;;;;;;;105.30;64.50;;;;;;;;;;5036282;28;20043;-80
2022/03/25 02:46:11;;;;;;;100.50;62.08;;;6.50;99.90;;;;;;5036025;28;20041;-80
2022/03/25 02:48:36;;;;;;;101.13;62.33;;;6.50;99.90;;;;;;5052922;28;20037;-80
2022/03/25 02:51:03;;;;;;;103.15;61.78;;;6.50;99.90;;;;;;5035772;28;20128;-81
2022/03/25 02:53:29;;;;;;;99.10;62.67;;;6.40;99.90;;;;;;5032289;28;20099;-81
2022/03/25 02:55:56;;;;;;;97.70;63.00;;;6.50;99.90;;;;;;5058655;28;20071;-81
2022/03/25 02:58:22;;;;;;;90.80;59.65;;;6.50;99.90;;;;;;5072168;28;20072;-81
2022/03/25 03:00:48;;;;;;;96.07;60.92;;;6.50;99.90;;;;;;5045045;28;20040;-81
2022/03/25 03:03:14;;;;;;;90.70;58.28;;;6.50;99.90;;;;;;5053097;28;20433;-81
2022/03/25 03:05:40;;;;;;;102.53;62.55;;;6.50;99.90;;;;;;5052278;28;20079;-81
2022/03/25 03:08:06;;;;;;;94.65;59.10;;;6.40;99.90;;;;;;5051623;28;20040;-81
2022/03/25 03:10:32;;;;;;;92.78;61.30;;;6.40;99.90;;;;;;5041539;28;20058;-80
2022/03/25 03:12:59;;;;;;;95.85;58.72;;;7.00;99.90;;;;;;5055755;28;20479;-81
2022/03/25 03:15:25;;;;;;;91.35;60.58;;;7.00;99.90;;;;;;5047004;28;20119;-81
2022/03/25 03:17:51;;;;;;;89.97;59.38;;;6.30;99.90;;;;;;5085679;28;20053;-81
2022/03/25 03:20:20;;;;;;;89.75;58.03;;;6.30;99.90;;;;;;5034953;28;20124;-81
2022/03/25 03:22:49;;;;;;;91.03;57.95;;;6.30;99.90;;;;;;5085030;28;20497;-81
2022/03/25 03:25:15;;;;;;;92.82;57.40;;;6.20;99.90;;;;;;5017744;28;20083;-81
2022/03/25 03:27:41;;;;;;;92.10;56.85;;;7.20;99.90;;;;;;5035117;28;20055;-81
2022/03/25 03:30:12;;;;;;;87.10;55.10;;;6.20;99.90;;;;;;5042400;28;20051;-81
2022/03/25 03:32:38;;;;;;;91.18;55.65;;;6.20;99.90;;;;;;5057793;28;20038;-81
2022/03/25 03:35:05;;;;;;;82.53;54.65;;;6.10;99.90;;;;;;5065036;28;20080;-81
2022/03/25 03:37:31;;;;;;;92.35;56.28;;;6.10;99.90;;;;;;5048162;28;20077;-80
2022/03/25 03:39:58;;;;;;;87.82;55.00;;;6.10;99.90;;;;;;5068615;28;20087;-80
2022/03/25 03:42:24;;;;;;;83.88;53.88;;;6.60;99.90;;;;;;5015250;28;20044;-80
2022/03/25 03:44:49;;;;;;;85.38;54.55;;;6.50;99.90;;;;;;5050685;28;20041;-80
2022/03/25 03:47:15;;;;;;;89.85;56.13;;;6.00;99.90;;;;;;5068557;28;20040;-81
2022/03/25 03:49:41;;;;;;;89.90;53.50;;;6.00;99.90;;;;;;5052337;28;20404;-81
2022/03/25 03:52:10;;;;;;;83.45;53.05;;;6.00;99.90;;;;;;5035392;28;20044;-81
2022/03/25 03:54:38;;;;;;;79.95;51.67;;;6.00;99.90;;;;;;5052003;28;20052;-78
2022/03/25 03:57:09;;;;;;;83.35;52.40;;;6.90;99.90;;;;;;5032192;28;20134;-78
2022/03/25 03:59:35;;;;;;;89.18;52.15;;;6.40;99.90;;;;;;5024624;28;20089;-78
2022/03/25 04:02:03;;;;;;;82.95;52.47;;;6.00;99.90;;;;;;5068524;28;20048;-80
2022/03/25 04:04:29;;;;;;;81.05;51.85;;;5.90;99.90;;;;;;5068865;28;20044;-79
2022/03/25 04:06:54;;;;;;;80.60;51.28;;;6.00;99.90;;;;;;5051425;28;20044;-79
2022/03/25 04:09:20;;;;;;;77.10;50.92;;;6.30;99.90;;;;;;5051995;28;20040;-78
2022/03/25 04:11:46;;;;;;;77.55;49.28;;;6.70;99.90;;;;;;5049219;28;20049;-78
2022/03/25 04:14:12;;;;;;;71.30;47.83;;;5.90;99.90;;;;;;5034855;28;20043;-78
2022/03/25 04:16:38;;;;;;;75.57;48.33;;;5.90;99.90;;;;;;5034096;28;20037;-77
2022/03/25 04:19:03;;;;;;;70.40;47.10;;;6.20;99.90;;;;;;5050368;28;20400;-76
2022/03/25 04:21:29;;;;;;;74.85;47.45;;;5.90;99.90;;;;;;5049778;28;20092;-77
2022/03/25 04:23:55;;;;;;;70.05;45.88;;;5.90;99.90;;;;;;5037121;28;20043;-76
2022/03/25 04:26:21;;;;;;;71.32;45.38;;;5.90;99.90;;;;;;5038541;28;20088;-77
2022/03/25 04:28:47;;;;;;;68.05;43.80;;;5.90;99.90;;;;;;5055013;28;20132;-77
2022/03/25 04:31:12;;;;;;;69.82;45.60;;;5.80;99.90;;;;;;5016864;28;20033;-77
2022/03/25 04:33:41;;;;;;;69.20;44.75;;;6.20;99.90;;;;;;5050962;28;20433;-80
2022/03/25 04:36:08;;;;;;;76.32;47.30;;;5.80;99.90;;;;;;5022261;28;20439;-80
2022/03/25 04:38:34;;;;;;;67.95;42.38;;;6.90;99.90;;;;;;5029707;28;20116;-80
2022/03/25 04:41:02;;;;;;;74.32;45.70;;;5.70;99.90;;;;;;5018324;28;20049;-81
2022/03/25 04:43:28;;;;;;;70.28;44.75;;;5.70;99.90;;;;;;5019100;28;20038;-80
2022/03/25 04:45:54;;;;;;;70.40;44.10;;;5.60;99.90;;;;;;5030138;28;20508;-80
2022/03/25 04:48:20;;;;;;;71.32;44.65;;;5.60;99.90;;;;;;5035960;28;20119;-80
2022/03/25 04:50:46;;;;;;;79.95;46.25;;;5.70;99.90;;;;;;5052668;28;20072;-80
2022/03/25 04:53:12;;;;;;;74.28;45.80;;;5.70;99.90;;;;;;5034880;28;20049;-81
2022/03/25 04:55:38;;;;;;;68.70;44.45;;;6.60;99.90;;;;;;5053217;28;20126;-81
2022/03/25 04:58:04;;;;;;;76.13;46.28;;;5.70;99.90;;;;;;5051102;28;20041;-81
2022/03/25 05:00:32;;;;;;;70.55;44.90;;;5.60;99.90;;;;;;5067892;28;20111;-81
2022/03/25 05:02:58;;;;;;;70.47;45.13;;;5.60;99.90;;;;;;5034554;28;20497;-81
2022/03/25 05:05:25;;;;;;;71.82;45.88;;;5.60;99.90;;;;;;5010817;28;20178;-81
2022/03/25 05:07:51;;;;;;;73.40;46.47;;;5.50;99.90;;;;;;5036502;28;20049;-81
2022/03/25 05:10:17;;;;;;;74.43;47.28;;;5.50;99.90;;;;;;5017955;28;20555;-81
2022/03/25 05:12:44;;;;;;;72.97;46.13;;;5.60;99.90;;;;;;5034348;28;20041;-81
2022/03/25 05:15:10;;;;;;;78.20;47.88;;;4.70;99.90;;;;;;5037698;28;20045;-81
2022/03/25 05:17:46;;;;;;;77.72;49.30;;;5.50;99.90;;;;;;5054150;28;20056;-81
2022/03/25 05:20:12;;;;;;;;;;;6.40;99.90;;;;;;5037389;28;20045;-81
2022/03/25 05:22:38;;;;;;;80.47;48.58;;;5.50;99.90;;;;;;5053654;28;20372;-81
2022/03/25 05:25:07;;;;;;;80.60;48.10;;;5.50;99.90;;;;;;5054101;28;20037;-81
2022/03/25 05:27:50;;;;;;;81.60;48.47;;;5.50;99.90;;;;;;5036534;28;20044;-81
2022/03/25 05:30:21;;;;;;;76.72;46.55;;;5.50;99.90;;;;;;5037339;28;20397;-81
2022/03/25 05:32:50;;;;;;;87.07;49.42;;;5.40;99.90;;;;;;5029952;28;20048;-81
2022/03/25 05:35:17;;;;;;;74.63;47.75;;;;;;;;;;5029940;28;20036;-81
2022/03/25 05:37:42;;;;;;;80.65;49.75;;;5.40;99.90;;;;;;5036448;28;20041;-81
2022/03/25 05:40:09;;;;;;;85.93;51.80;;;5.50;99.90;;;;;;5020903;28;20056;-80
2022/03/25 05:42:36;;;;;;;87.75;51.30;;;5.50;99.90;;;;;;5053595;28;20048;-80
2022/03/25 05:45:04;;;;;;;81.70;51.88;;;5.50;99.90;;;;;;5020618;28;20032;-80
2022/03/25 05:47:33;;;;;;;89.00;53.10;;;5.60;99.90;;;;;;5050742;28;20072;-80
2022/03/25 05:50:01;;;;;;;83.18;50.38;;;5.60;99.90;;;;;;5052785;28;20052;-81
2022/03/25 05:52:27;;;;;;;80.50;49.40;;;5.20;99.90;;;;;;5063167;28;20051;-81
2022/03/25 05:55:16;;;;;;;79.05;49.95;;;5.50;99.90;;;;;;5057077;28;20492;-81
2022/03/25 05:57:43;;;;;;;83.38;50.08;;;6.70;99.90;;;;;;5055316;28;20041;-81
2022/03/25 06:00:09;;;;;;;80.13;47.58;;;6.40;99.90;;;;;;5074562;28;20127;-80
2022/03/25 06:02:42;;;;;;;75.85;47.60;;;6.00;99.90;;;;;;5074489;28;20036;-81
2022/03/25 06:05:09;;;;;;;76.20;46.35;;;6.00;99.90;;;;;;5068147;28;20044;-81
2022/03/25 06:07:40;;;;;;;73.20;45.92;;;6.10;99.90;;;;;;5026198;28;20043;-80
2022/03/25 06:10:10;;;;;;;72.88;44.50;;;7.30;99.90;;;;;;5054920;28;20487;-80
2022/03/25 06:12:37;;;;;;;74.70;43.90;;;6.20;99.90;;;;;;5036812;28;20048;-81
2022/03/25 06:15:04;;;;;;;72.85;45.53;;;5.40;99.90;;;;;;5073939;28;20090;-81
2022/03/25 06:17:30;;;;;;;64.60;42.33;;;6.30;99.90;;;;;;5070740;28;20048;-81
2022/03/25 06:19:56;;;;;;;68.60;40.63;;;6.30;99.90;;;;;;5020461;28;20098;-80
2022/03/25 06:22:24;;;;;;;67.10;40.45;;;6.30;99.90;;;;;;5050079;28;20442;-81
2022/03/25 06:24:53;;;;;;;64.35;40.25;;;6.30;99.90;;;;;;5019945;28;20489;-81
2022/03/25 06:27:19;;;;;;;60.97;39.65;;;6.40;99.90;;;;;;5038570;28;20256;-81
2022/03/25 06:29:45;;;;;;;62.28;40.00;;;6.50;99.90;;;;;;5054907;28;20036;-81
2022/03/25 06:32:12;;;;;;;65.65;41.63;;;6.40;99.90;;;;;;5056091;28;20080;-80
2022/03/25 06:34:38;;;;;;;59.13;38.03;;;6.40;99.90;;;;;;5038200;28;20401;-84
2022/03/25 06:37:04;;;;;;;63.58;40.72;;;6.40;99.90;;;;;;5072604;28;20040;-78
2022/03/25 06:39:30;;;;;;;60.00;40.20;;;6.50;99.90;;;;;;5053694;28;20182;-83
2022/03/25 06:41:56;;;;;;;62.28;39.67;;;6.50;99.90;;;;;;5020588;28;20041;-85
2022/03/25 06:44:22;;;;;;;60.83;38.00;;;6.60;99.90;;;;;;5020133;28;20041;-88
2022/03/25 06:46:50;;;;;;;61.30;40.65;;;6.80;99.90;;;;;;5037849;28;20045;-83
2022/03/25 06:49:17;;;;;;;63.25;40.35;;;6.70;99.90;;;;;;5063017;28;20043;-88
2022/03/25 06:51:43;;;;;;;61.22;39.17;;;6.70;99.90;;;;;;5054244;28;20494;-80
2022/03/25 06:54:09;;;;;;;60.90;39.53;;;6.70;99.90;;;;;;5055539;28;20040;-88
2022/03/25 06:56:35;;;;;;;58.20;38.30;;;6.20;99.90;;;;;;5039179;28;20044;-77
2022/03/25 06:59:05;;;;;;;63.33;39.17;;;6.80;99.90;;;;;;5051924;28;20091;-83
2022/03/25 07:01:34;;;;;;;59.75;38.92;;;6.80;99.90;;;;;;5037463;28;20041;-82
2022/03/25 07:04:03;;;;;;;58.22;38.60;;;6.90;99.90;;;;;;5018495;28;20044;-80
2022/03/25 07:06:30;;;;;;;60.97;38.50;;;7.80;99.90;;;;;;5047644;28;20041;-79
2022/03/25 07:08:57;;;;;;;58.05;38.10;;;6.90;99.90;;;;;;5049282;28;20424;-78
2022/03/25 07:11:26;;;;;;;58.63;37.30;;;7.00;99.90;;;;;;5065638;28;20528;-76
2022/03/25 07:13:52;;;;;;;59.33;36.42;;;7.00;99.90;;;;;;5058908;28;20394;-75
2022/03/25 07:16:19;;;;;;;50.22;34.20;;;7.10;99.90;;;;;;5063247;28;20049;-76
2022/03/25 07:18:45;;;;;;;53.30;33.47;;;7.10;99.90;;;;;;5074059;28;20449;-78
2022/03/25 07:21:12;;;;;;;53.80;36.35;;;7.10;99.90;;;;;;5015550;28;20084;-78
2022/03/25 07:23:38;;;;;;;54.17;33.90;;;7.10;99.90;;;;;;5051749;28;20048;-79
2022/03/25 07:26:05;;;;;;;59.95;36.10;;;7.20;99.90;;;;;;5044940;28;20049;-79
2022/03/25 07:28:31;;;;;;;63.60;37.15;;;7.20;99.90;;;;;;5036610;28;20080;-78
2022/03/25 07:30:57;;;;;;;56.90;36.03;;;7.30;99.90;;;;;;5064340;28;20045;-80
2022/03/25 07:33:23;;;;;;;58.92;34.35;;;7.30;99.90;;;;;;5034320;28;20056;-84
2022/03/25 07:35:49;;;;;;;51.95;34.00;;;7.40;99.90;;;;;;5043674;28;20041;-81
2022/03/25 07:38:15;;;;;;;50.78;34.90;;;7.40;99.90;;;;;;5033791;28;20392;-82
2022/03/25 07:40:41;;;;;;;55.13;34.03;;;7.40;99.90;;;;;;5035398;28;20041;-79
2022/03/25 07:43:07;;;;;;;55.58;34.03;;;7.40;99.90;;;;;;5031399;28;20029;-75
2022/03/25 07:45:33;;;;;;;54.05;32.78;;;7.50;99.90;;;;;;5044325;28;20040;-75
2022/03/25 07:47:58;;;;;;;52.65;32.10;;;7.50;99.90;;;;;;5046560;28;20037;-75
2022/03/25 07:50:24;;;;;;;48.20;32.20;;;8.40;99.90;;;;;;5031261;28;20041;-76
2022/03/25 07:52:52;;;;;;;50.97;31.27;;;7.60;99.90;;;;;;5047006;28;20047;-76
2022/03/25 07:55:19;;;;;;;48.85;31.75;;;7.60;99.90;;;;;;5045516;28;20040;-75
2022/03/25 07:57:46;;;;;;;49.95;31.05;;;8.20;99.90;;;;;;5033589;28;20075;-74
2022/03/25 08:00:13;;;;;;;53.50;31.45;;;7.70;99.90;;;;;;5033231;28;20045;-76
2022/03/25 08:02:40;;;;;;;47.45;29.80;;;7.80;99.90;;;;;;5051082;28;20127;-77
2022/03/25 08:05:09;;;;;;;46.70;29.35;;;8.10;99.90;;;;;;5080909;28;20035;-76
2022/03/25 08:07:48;;;;;;;46.70;28.50;;;8.00;99.90;;;;;;5032730;28;20528;-77
2022/03/25 08:10:22;;;;;;;44.58;26.50;;;8.10;99.90;;;;;;5051215;28;20041;-77
2022/03/25 08:12:53;;;;;;;48.60;26.88;;;8.20;99.90;;;;;;5048912;28;20068;-76
2022/03/25 08:15:20;;;;;;;45.75;26.95;;;8.30;99.90;;;;;;5032893;28;20049;-77
2022/03/25 08:17:58;;;;;;;44.17;27.20;;;8.40;99.90;;;;;;5032946;28;20044;-76
2022/03/25 08:20:33;;;;;;;42.22;27.20;;;8.40;99.90;;;;;;5051940;28;20061;-76
2022/03/25 08:23:00;;;;;;;;;;;8.50;99.90;;;;;;5078007;28;20053;-74
2022/03/25 08:28:11;;;;;;;43.50;22.80;;;9.60;99.90;;;;;;5051119;28;20056;-76
2022/03/25 08:30:37;;;;;;;43.22;21.80;;;8.70;99.90;;;;;;5059745;28;20049;-75
2022/03/25 08:33:04;;;;;;;40.90;21.60;;;8.70;99.90;;;;;;5032942;28;20087;-75
2022/03/25 08:35:30;;;;;;;44.40;23.10;;;8.80;99.90;;;;;;5031552;28;20482;-76
2022/03/25 08:37:58;;;;;;;42.22;21.42;;;8.80;99.90;;;;;;5061097;28;20099;-75
2022/03/25 08:40:25;;;;;;;42.25;22.60;;;8.90;99.90;;;;;;5051671;28;20443;-76
2022/03/25 08:42:51;;;;;;;39.72;22.85;;;9.00;99.90;;;;;;5032609;28;20040;-75
2022/03/25 08:45:17;;;;;;;40.50;22.17;;;9.00;99.90;;;;;;5048511;28;20040;-78
2022/03/25 08:47:50;;;;;;;44.22;22.52;;;9.00;99.90;;;;;;5020592;28;20041;-79
2022/03/25 08:50:22;;;;;;;45.33;24.10;;;9.10;99.90;;;;;;5050062;28;20053;-80
2022/03/25 08:53:03;;;;;;;41.03;23.08;;;9.00;99.90;;;;;;5033192;28;20489;-81
2022/03/25 08:55:29;;;;;;;40.33;22.00;;;9.10;99.90;;;;;;5033578;28;20087;-76
2022/03/25 08:57:56;;;;;;;46.50;22.98;;;9.10;99.90;;;;;;5032415;28;20065;-75
2022/03/25 09:00:23;;;;;;;42.55;22.52;;;9.20;99.90;;;;;;5049509;28;20488;-75
2022/03/25 09:02:48;;;;;;;39.25;22.45;;;9.20;99.90;;;;;;5033444;28;20041;-75
2022/03/25 09:05:16;;;;;;;39.75;22.05;;;9.30;99.90;;;;;;5076267;28;20044;-75
2022/03/25 09:07:43;;;;;;;39.10;22.60;;;9.30;99.90;;;;;;5033529;28;20041;-75
2022/03/25 09:10:11;;;;;;;43.28;22.55;;;9.40;99.90;;;;;;5030774;28;20106;-76
2022/03/25 09:12:37;;;;;;;39.75;22.00;;;9.60;99.90;;;;;;5032938;28;20106;-76
2022/03/25 09:15:06;;;;;;;37.33;21.15;;;9.50;99.90;;;;;;5051396;28;20037;-76
2022/03/25 09:17:35;;;;;;;36.13;20.98;;;9.60;99.90;;;;;;5048857;28;20045;-76
2022/03/25 09:20:03;;;;;;;36.25;22.02;;;9.60;99.90;;;;;;5050682;28;20515;-76
2022/03/25 09:22:31;;;;;;;33.10;21.30;;;9.60;99.90;;;;;;5050359;28;20061;-77
2022/03/25 09:24:57;;;;;;;35.75;21.20;;;10.00;99.90;;;;;;5061962;28;20139;-76
2022/03/25 09:27:23;;;;;;;39.42;20.90;;;10.10;99.90;;;;;;5050531;28;20051;-75
2022/03/25 09:29:49;;;;;;;36.40;19.88;;;9.70;99.90;;;;;;5060738;28;20051;-76
2022/03/25 09:32:15;;;;;;;36.80;19.70;;;9.50;99.90;;;;;;5016517;28;20041;-76
2022/03/25 09:37:24;;;;;;;37.20;19.63;;;10.10;99.90;;;;;;5049919;28;20049;-76
2022/03/25 09:39:51;;;;;;;37.47;21.02;;;10.20;99.90;;;;;;5032346;28;20508;-76
2022/03/25 09:42:18;;;;;;;32.75;17.98;;;10.30;99.90;;;;;;5061516;28;20099;-77
2022/03/25 09:44:49;;;;;;;42.47;18.83;;;10.40;99.90;;;;;;5033484;28;20037;-80
2022/03/25 09:47:16;;;;;;;37.03;19.02;;;10.40;99.90;;;;;;5057983;28;20072;-75
2022/03/25 09:49:48;;;;;;;35.53;18.10;;;10.50;99.90;;;;;;5061817;28;20051;-75
2022/03/25 09:52:18;;;;;;;30.77;18.48;;;10.60;99.90;;;;;;5047374;28;20132;-75
2022/03/25 09:54:44;;;;;;;32.83;19.00;;;10.80;99.90;;;;;;5049102;28;20045;-75
2022/03/25 09:57:10;;;;;;;34.22;20.13;;;11.10;99.90;;;;;;5049088;28;20029;-75
2022/03/25 09:59:35;;;;;;;32.05;18.90;;;10.70;99.90;;;;;;5032796;28;20044;-75
2022/03/25 10:02:04;;;;;;;40.20;21.20;;;10.70;99.90;;;;;;5032465;28;20106;-75
2022/03/25 10:04:44;;;;;;;36.38;20.13;;;10.80;99.90;;;;;;5048922;28;20049;-75
2022/03/25 10:07:20;;;;;;;35.63;21.00;;;10.90;99.90;;;;;;5049097;28;20181;-75
2022/03/25 10:09:48;;;;;;;43.67;21.73;;;11.00;99.90;;;;;;5031785;28;20032;-75
2022/03/25 10:12:22;;;;;;;38.67;21.50;;;11.00;99.90;;;;;;5049140;28;20055;-75
2022/03/25 10:14:52;;;;;;;37.40;21.77;;;11.10;99.90;;;;;;5031985;28;20102;-75
2022/03/25 10:17:19;;;;;;;38.85;22.55;;;11.10;99.90;;;;;;5032337;28;20370;-75
2022/03/25 10:19:53;;;;;;;41.70;22.80;;;11.10;99.90;;;;;;5031609;28;21313;-75
2022/03/25 10:22:19;;;;;;;38.67;22.65;;;11.20;99.90;;;;;;5047810;28;20115;-75
2022/03/25 10:24:48;;;;;;;36.88;22.00;;;12.20;99.90;;;;;;5079972;28;20127;-75
2022/03/25 10:27:21;;;;;;;44.83;23.90;;;11.30;99.90;;;;;;5049473;28;20517;-75
2022/03/25 10:29:47;;;;;;;42.42;24.40;;;11.40;99.90;;;;;;5048475;28;20370;-75
2022/03/25 10:32:19;;;;;;;41.28;23.88;;;11.40;99.90;;;;;;5047777;28;20145;-75
2022/03/25 10:35:10;;;;;;;42.22;24.67;;;11.50;99.90;;;;;;5032029;28;20067;-75
2022/03/25 10:37:38;;;;;;;45.30;23.95;;;11.50;99.90;;;;;;5028591;28;20049;-75
2022/03/25 10:40:06;;;;;;;43.13;25.15;;;11.40;99.90;;;;;;5049189;28;20481;-75
2022/03/25 10:42:33;;;;;;;47.88;25.55;;;11.60;99.90;;;;;;5048134;28;20524;-75
2022/03/25 10:44:59;;;;;;;40.00;23.30;;;11.60;99.90;;;;;;5048074;28;20130;-75
2022/03/25 10:47:29;;;;;;;44.55;24.45;;;11.70;99.90;;;;;;5078727;28;20377;-75
2022/03/25 10:50:10;;;;;;;54.22;30.10;;;11.80;99.90;;;;;;5047759;28;20438;-75
2022/03/25 10:52:35;;;;;;;50.72;27.48;;;11.90;99.90;;;;;;5047942;28;20052;-75
2022/03/25 10:55:16;;;;;;;46.83;25.50;;;12.00;99.90;;;;;;5030606;28;20037;-76
2022/03/25 10:57:59;;;;;;;49.13;26.92;;;12.00;99.90;;;;;;5051091;28;20071;-79
2022/03/25 11:00:30;;;;;;;46.25;26.77;;;12.10;99.90;;;;;;5050691;28;20344;-78
2022/03/25 11:02:56;;;;;;;47.47;27.48;;;12.50;99.90;;;;;;5051820;28;20393;-78
2022/03/25 11:05:22;;;;;;;47.30;25.38;;;12.10;99.90;;;;;;5051862;28;20040;-78
2022/03/25 11:07:51;;;;;;;47.50;26.60;;;12.20;99.90;;;;;;5035096;28;20137;-78
2022/03/25 11:10:18;;;;;;;47.47;28.52;;;12.20;99.90;;;;;;5051818;28;20041;-78
2022/03/25 11:12:53;;;;;;;47.22;26.83;;;12.20;99.90;;;;;;5051461;28;20543;-78
2022/03/25 11:15:20;;;;;;;50.70;27.63;;;12.30;99.90;;;;;;5035251;28;20041;-77
2022/03/25 11:17:47;;;;;;;45.00;24.75;;;12.30;99.90;;;;;;5034920;28;20128;-77
2022/03/25 11:20:19;;;;;;;45.55;24.58;;;12.30;99.90;;;;;;5051097;28;20045;-78
2022/03/25 11:23:04;;;;;;;47.28;25.38;;;12.30;99.90;;;;;;5051372;28;20124;-77
2022/03/25 11:25:34;;;;;;;44.58;24.67;;;12.40;99.90;;;;;;5051511;28;20392;-77
2022/03/25 11:28:04;;;;;;;51.00;25.00;;;12.40;99.70;;;;;;5034560;28;20041;-77
2022/03/25 11:30:35;;;;;;;48.22;24.13;;;12.50;99.20;;;;;;5051312;28;20080;-77
2022/03/25 11:33:03;;;;;;;44.97;25.08;;;12.60;98.80;;;;;;5052019;28;20043;-77
2022/03/25 11:35:33;;;;;;;40.40;23.75;;;12.60;98.80;;;;;;5065118;28;20041;-78
2022/03/25 11:38:11;;;;;;;47.65;24.48;;;12.70;98.80;;;;;;5031287;28;20129;-77
2022/03/25 11:40:45;;;;;;;46.72;24.08;;;13.40;98.80;;;;;;5032432;28;20126;-77
2022/03/25 11:43:21;;;;;;;43.65;23.55;;;12.70;98.00;;;;;;5047932;28;20037;-77
2022/03/25 11:45:59;;;;;;;44.33;23.13;;;12.70;98.10;;;;;;5031110;28;20045;-77
2022/03/25 11:48:34;;;;;;;43.70;21.92;;;12.70;98.00;;;;;;5035176;28;20047;-78
2022/03/25 11:51:01;;;;;;;41.47;20.48;;;12.80;98.10;;;;;;5051257;28;20488;-78
2022/03/25 11:53:31;;;;;;;38.47;20.20;;;12.90;97.70;;;;;;5034551;28;20091;-78
2022/03/25 11:56:26;;;;;;;51.40;21.20;;;12.90;96.90;;;;;;5052252;28;20036;-78
2022/03/25 11:58:57;;;;;;;39.13;20.30;;;13.10;95.90;;;;;;5037081;28;20041;-78
2022/03/25 12:01:25;;;;;;;46.70;17.88;;;13.10;95.90;;;;;;5052116;28;20120;-78
2022/03/25 12:03:53;;;;;;;33.22;17.08;;;13.10;94.60;;;;;;5051745;28;20044;-77
2022/03/25 12:06:27;;;;;;;37.22;17.25;;;13.10;94.30;;;;;;5051065;28;20371;-78
2022/03/25 12:09:13;;;;;;;32.92;15.77;;;13.10;93.80;;;;;;5051318;28;20074;-78
2022/03/25 12:11:56;;;;;;;29.40;15.40;;;13.20;92.50;;;;;;5031473;28;20436;-78
2022/03/25 12:14:31;;;;;;;29.15;15.05;;;13.20;92.40;;;;;;5014832;28;20033;-79
2022/03/25 12:17:23;;;;;;;30.83;15.10;;;13.20;92.70;;;;;;5031278;28;20132;-79
2022/03/25 12:19:51;;;;;;;33.30;16.35;;;13.30;91.60;;;;;;5059708;28;20062;-79
2022/03/25 12:22:23;;;;;;;32.78;15.48;;;13.30;91.10;;;;;;5031128;28;20054;-79
2022/03/25 12:24:51;;;;;;;33.88;15.95;;;13.70;91.40;;;;;;5037514;28;20389;-77
2022/03/25 12:27:17;;;;;;;26.23;14.07;;;13.30;91.40;;;;;;5034085;28;20041;-77
2022/03/25 12:29:55;;;;;;;27.77;13.93;;;13.40;91.70;;;;;;5051090;28;20082;-77
2022/03/25 12:32:32;;;;;;;28.05;14.75;;;13.40;91.40;;;;;;5033940;28;20052;-77
2022/03/25 12:35:07;;;;;;;30.23;13.63;;;13.30;91.00;;;;;;5050647;28;20370;-77
2022/03/25 12:37:38;;;;;;;30.45;15.57;;;13.40;90.70;;;;;;5050414;28;20048;-77
2022/03/25 12:40:16;;;;;;;26.50;15.23;;;13.40;90.40;;;;;;5034605;28;20040;-77
2022/03/25 12:42:42;;;;;;;30.80;16.00;;;13.40;90.70;;;;;;5050674;28;20409;-77
2022/03/25 12:45:09;;;;;;;31.13;17.83;;;13.40;90.80;;;;;;5053279;28;20080;-78